Time;durP1;ratioP1;P1;durP2;ratioP2;P2;SDS_P1;SDS_P2;PMS_P1;PMS_P2;Temp;Humidity;BMP_temperature;BMP_pressure;BME280_temperature;BME280_humidity;BME280_pressure;Samples;Min_cycle;Max_cycle;Signal;HPM_P1;HPM_P2
2022/09/21 00:02:01;;;;;;;71.47;17.48;;;11.90;99.90;;;;;;5058750;28;20161;-86
2022/09/21 00:04:27;;;;;;;73.13;18.90;;;12.00;99.90;;;;;;5059592;28;20176;-86
2022/09/21 00:06:53;;;;;;;75.33;19.10;;;12.00;99.90;;;;;;5040623;28;20497;-87
2022/09/21 00:09:18;;;;;;;75.97;20.57;;;11.90;99.90;;;;;;5059017;28;20164;-87
2022/09/21 00:11:44;;;;;;;72.83;20.53;;;12.00;99.90;;;;;;5040886;28;20248;-86
2022/09/21 00:14:13;;;;;;;74.27;18.83;;;11.90;99.90;;;;;;5059228;28;20189;-87
2022/09/21 00:16:40;;;;;;;72.03;19.92;;;11.90;99.90;;;;;;5059148;28;20636;-86
2022/09/21 00:19:06;;;;;;;72.75;21.45;;;11.80;99.90;;;;;;5059487;28;20177;-87
2022/09/21 00:21:33;;;;;;;73.47;20.20;;;11.80;99.90;;;;;;5059323;28;20168;-86
2022/09/21 00:23:59;;;;;;;77.20;24.30;;;11.80;99.90;;;;;;5058980;28;20168;-85
2022/09/21 00:26:26;;;;;;;73.47;21.40;;;11.70;99.90;;;;;;5059533;28;20169;-87
2022/09/21 00:28:58;;;;;;;75.43;23.48;;;11.70;99.90;;;;;;5041050;28;20552;-86
2022/09/21 00:31:24;;;;;;;73.13;17.25;;;11.70;99.90;;;;;;5040376;28;20168;-86
2022/09/21 00:33:53;;;;;;;72.80;17.45;;;11.70;99.90;;;;;;5058345;28;20234;-86
2022/09/21 00:36:21;;;;;;;73.97;23.10;;;11.70;99.90;;;;;;5040588;28;20160;-86
2022/09/21 00:38:52;;;;;;;76.28;21.55;;;11.70;99.90;;;;;;5058789;28;20177;-86
2022/09/21 00:41:19;;;;;;;73.35;17.27;;;11.70;99.90;;;;;;5058774;28;20157;-87
2022/09/21 00:44:05;;;;;;;73.65;24.67;;;11.60;99.90;;;;;;5058612;28;20168;-86
2022/09/21 00:46:30;;;;;;;72.43;18.25;;;11.50;99.90;;;;;;5040626;28;20210;-87
2022/09/21 00:48:57;;;;;;;72.00;18.77;;;11.60;99.90;;;;;;5040338;28;20214;-85
2022/09/21 00:51:24;;;;;;;76.57;23.00;;;11.60;99.90;;;;;;5058234;28;20180;-86
2022/09/21 00:53:55;;;;;;;80.55;20.13;;;11.60;99.90;;;;;;5058655;28;20235;-86
2022/09/21 00:56:21;;;;;;;71.90;20.45;;;11.50;99.90;;;;;;5041545;28;20184;-87
2022/09/21 00:58:50;;;;;;;75.53;26.55;;;11.50;99.90;;;;;;5040873;28;20536;-87
2022/09/21 01:01:17;;;;;;;78.07;23.90;;;11.40;99.90;;;;;;5039843;28;20164;-86
2022/09/21 01:03:44;;;;;;;74.68;20.65;;;11.40;99.90;;;;;;5041143;28;20180;-86
2022/09/21 01:06:12;;;;;;;76.15;23.50;;;11.40;99.90;;;;;;5058828;28;20651;-86
2022/09/21 01:08:40;;;;;;;75.22;27.30;;;11.30;99.90;;;;;;5058631;28;20194;-86
2022/09/21 01:11:27;;;;;;;74.20;25.27;;;11.30;99.90;;;;;;5058936;28;20173;-86
2022/09/21 01:14:20;;;;;;;73.45;20.45;;;11.40;99.90;;;;;;5059236;28;20192;-86
2022/09/21 01:16:55;;;;;;;72.25;20.02;;;11.40;99.90;;;;;;5058260;28;20145;-86
2022/09/21 01:19:39;;;;;;;72.90;20.77;;;11.30;99.90;;;;;;5058210;28;20147;-86
2022/09/21 01:22:14;;;;;;;76.10;26.40;;;11.30;99.90;;;;;;5040743;28;20158;-86
2022/09/21 01:24:51;;;;;;;74.47;24.08;;;11.20;99.90;;;;;;5058246;28;20226;-86
2022/09/21 01:27:51;;;;;;;75.07;24.77;;;11.20;99.90;;;;;;5058518;28;20185;-86
2022/09/21 01:30:20;;;;;;;75.10;24.15;;;11.30;99.90;;;;;;5040321;28;20667;-85
2022/09/21 01:32:58;;;;;;;77.68;26.50;;;11.20;99.90;;;;;;5057693;28;20165;-87
2022/09/21 01:35:51;;;;;;;77.90;25.25;;;11.20;99.90;;;;;;5058117;28;20231;-86
2022/09/21 01:38:29;;;;;;;76.70;28.23;;;11.10;99.90;;;;;;5057895;28;20687;-86
2022/09/21 01:40:59;;;;;;;78.95;30.50;;;11.10;99.90;;;;;;5058043;28;20156;-86
2022/09/21 01:43:39;;;;;;;85.63;34.00;;;11.10;99.90;;;;;;5039972;28;20172;-86
2022/09/21 01:46:11;;;;;;;78.43;30.13;;;11.10;99.90;;;;;;5039626;28;20550;-86
2022/09/21 01:48:40;;;;;;;75.13;27.13;;;11.00;99.90;;;;;;5040103;28;20206;-86
2022/09/21 01:51:09;;;;;;;80.57;34.70;;;11.00;99.90;;;;;;5039173;28;20682;-86
2022/09/21 01:53:49;;;;;;;72.93;19.50;;;11.00;99.90;;;;;;5056923;28;20172;-86
2022/09/21 01:56:35;;;;;;;80.75;25.88;;;11.10;99.90;;;;;;5057048;28;20144;-86
2022/09/21 01:59:12;;;;;;;72.93;21.15;;;11.00;99.90;;;;;;5057237;28;20192;-87
2022/09/21 02:01:47;;;;;;;78.38;25.13;;;11.00;99.90;;;;;;5057860;28;20157;-86
2022/09/21 02:04:13;;;;;;;75.50;25.60;;;11.00;99.90;;;;;;5057671;28;20167;-87
2022/09/21 02:06:42;;;;;;;74.60;26.27;;;11.00;99.90;;;;;;5057542;28;20230;-86
2022/09/21 02:09:09;;;;;;;82.00;32.67;;;10.90;99.90;;;;;;5056772;28;20964;-86
2022/09/21 02:11:37;;;;;;;76.63;32.35;;;10.70;99.90;;;;;;5056885;28;20171;-86
2022/09/21 02:14:08;;;;;;;77.90;32.08;;;10.80;99.90;;;;;;5039185;28;20732;-87
2022/09/21 02:16:43;;;;;;;78.65;29.65;;;10.80;99.90;;;;;;5039320;28;20186;-87
2022/09/21 02:19:13;;;;;;;77.38;29.70;;;10.80;99.90;;;;;;5038788;28;20183;-86
2022/09/21 02:21:48;;;;;;;76.85;30.52;;;10.80;99.90;;;;;;5038850;28;20271;-85
2022/09/21 02:24:28;;;;;;;81.78;33.80;;;10.80;99.90;;;;;;5056444;28;20240;-86
2022/09/21 02:26:56;;;;;;;77.38;34.67;;;10.70;99.90;;;;;;5056556;28;20144;-87
2022/09/21 02:29:33;;;;;;;78.45;31.13;;;10.70;99.90;;;;;;5057082;28;20758;-86
2022/09/21 02:32:22;;;;;;;73.43;23.40;;;10.80;99.90;;;;;;5057112;28;20157;-86
2022/09/21 02:35:03;;;;;;;80.05;26.83;;;10.80;99.90;;;;;;5056846;28;20176;-85
2022/09/21 02:37:44;;;;;;;81.97;33.63;;;10.70;99.90;;;;;;5057041;28;20180;-86
2022/09/21 02:40:18;;;;;;;74.82;25.27;;;10.70;99.90;;;;;;5057925;28;20160;-86
2022/09/21 02:42:47;;;;;;;76.88;29.80;;;10.70;99.90;;;;;;5057373;28;20164;-87
2022/09/21 02:45:40;;;;;;;73.72;26.35;;;10.60;99.90;;;;;;5057175;28;20168;-86
2022/09/21 02:48:15;;;;;;;74.80;26.42;;;10.60;99.90;;;;;;5028440;28;20196;-87
2022/09/21 02:50:48;;;;;;;76.45;28.55;;;10.50;99.90;;;;;;5038792;28;20186;-86
2022/09/21 02:53:19;;;;;;;74.00;25.33;;;10.50;99.90;;;;;;5057318;28;20165;-85
2022/09/21 02:55:45;;;;;;;77.28;36.03;;;10.50;99.90;;;;;;5061104;28;20148;-86
2022/09/21 02:58:13;;;;;;;74.90;28.40;;;10.50;99.90;;;;;;5042926;28;20260;-86
2022/09/21 03:00:39;;;;;;;74.90;30.95;;;10.40;99.90;;;;;;5042524;28;20214;-86
2022/09/21 03:03:23;;;;;;;74.73;26.43;;;10.50;99.90;;;;;;5060465;28;20619;-86
2022/09/21 03:05:51;;;;;;;77.47;28.77;;;10.50;99.90;;;;;;5061133;28;20749;-86
2022/09/21 03:08:18;;;;;;;76.78;30.20;;;10.50;99.90;;;;;;5042505;28;20279;-86
2022/09/21 03:10:45;;;;;;;78.07;30.75;;;10.40;99.90;;;;;;5061103;28;20156;-86
2022/09/21 03:13:11;;;;;;;80.40;33.35;;;10.40;99.90;;;;;;5060438;28;20249;-86
2022/09/21 03:15:38;;;;;;;77.03;34.92;;;10.40;99.90;;;;;;5060539;28;20227;-86
2022/09/21 03:18:08;;;;;;;76.53;28.15;;;10.40;99.90;;;;;;5042404;28;20670;-86
2022/09/21 03:20:34;;;;;;;78.85;34.90;;;10.40;99.90;;;;;;5042354;28;20550;-86
2022/09/21 03:23:00;;;;;;;78.05;37.60;;;10.40;99.90;;;;;;5060130;28;20159;-86
2022/09/21 03:25:29;;;;;;;80.43;35.97;;;10.30;99.90;;;;;;5060232;28;20165;-86
2022/09/21 03:27:55;;;;;;;77.93;30.67;;;10.20;99.90;;;;;;5060581;28;20837;-86
2022/09/21 03:30:22;;;;;;;78.55;34.60;;;10.30;99.90;;;;;;5041780;28;20567;-86
2022/09/21 03:32:54;;;;;;;79.72;34.85;;;10.20;99.90;;;;;;5059785;28;20251;-85
2022/09/21 03:35:22;;;;;;;80.28;32.17;;;10.30;99.90;;;;;;5059826;28;20196;-86
2022/09/21 03:37:49;;;;;;;79.00;29.40;;;10.30;99.90;;;;;;5059700;28;20192;-86
2022/09/21 03:40:15;;;;;;;79.57;32.33;;;10.20;99.90;;;;;;5059397;28;20528;-87
2022/09/21 03:42:42;;;;;;;76.50;30.63;;;10.10;99.90;;;;;;5059808;28;20172;-85
2022/09/21 03:45:09;;;;;;;77.05;30.38;;;10.10;99.90;;;;;;5059471;28;20644;-85
2022/09/21 03:47:35;;;;;;;80.45;33.42;;;10.10;99.90;;;;;;5059063;28;20188;-86
2022/09/21 03:50:02;;;;;;;76.13;26.15;;;10.10;99.90;;;;;;5059172;28;20238;-85
2022/09/21 03:52:27;;;;;;;76.47;26.10;;;10.20;99.90;;;;;;5041263;28;20170;-86
2022/09/21 03:54:54;;;;;;;78.37;26.77;;;10.10;99.90;;;;;;5041597;28;20219;-86
2022/09/21 03:57:20;;;;;;;73.97;28.70;;;10.10;99.90;;;;;;5059184;28;20176;-86
2022/09/21 03:59:45;;;;;;;74.37;26.60;;;10.10;99.90;;;;;;5059097;28;20161;-86
2022/09/21 04:02:11;;;;;;;77.17;31.83;;;10.00;99.90;;;;;;5058582;28;20422;-86
2022/09/21 04:04:37;;;;;;;80.00;31.17;;;10.00;99.90;;;;;;5059034;28;20677;-86
2022/09/21 04:07:03;;;;;;;78.77;30.13;;;10.00;99.90;;;;;;5058436;28;20247;-86
2022/09/21 04:09:30;;;;;;;79.68;34.42;;;10.00;99.90;;;;;;5059064;28;20164;-86
2022/09/21 04:11:55;;;;;;;78.30;30.65;;;9.90;99.90;;;;;;5059340;28;20168;-85
2022/09/21 04:14:22;;;;;;;78.27;26.63;;;9.90;99.90;;;;;;5059799;28;20275;-85
2022/09/21 04:16:49;;;;;;;76.47;30.17;;;9.90;99.90;;;;;;5059901;28;20631;-86
2022/09/21 04:19:15;;;;;;;80.00;30.98;;;9.90;99.90;;;;;;5060763;28;20238;-85
2022/09/21 04:21:41;;;;;;;78.00;29.57;;;9.80;99.90;;;;;;5058739;28;20159;-85
2022/09/21 04:24:06;;;;;;;81.60;41.37;;;9.80;99.90;;;;;;5059055;28;20522;-85
2022/09/21 04:26:34;;;;;;;86.27;41.10;;;9.80;99.90;;;;;;5059647;28;20165;-85
2022/09/21 04:29:00;;;;;;;82.32;42.92;;;9.80;99.90;;;;;;5059170;28;20240;-85
2022/09/21 04:31:27;;;;;;;84.13;42.05;;;9.80;99.90;;;;;;5059996;28;20244;-86
2022/09/21 04:33:55;;;;;;;82.65;44.03;;;9.80;99.90;;;;;;5059737;28;20189;-86
2022/09/21 04:36:22;;;;;;;80.68;35.97;;;9.80;99.90;;;;;;5042738;28;20166;-86
2022/09/21 04:38:48;;;;;;;81.35;45.03;;;9.80;99.90;;;;;;5041380;28;20195;-86
2022/09/21 04:41:15;;;;;;;85.87;50.03;;;9.70;99.90;;;;;;5058941;28;20165;-86
2022/09/21 04:43:42;;;;;;;86.05;51.00;;;9.70;99.90;;;;;;5058994;28;20165;-85
2022/09/21 04:46:10;;;;;;;85.13;53.33;;;9.70;99.90;;;;;;5041014;28;20250;-85
2022/09/21 04:48:36;;;;;;;88.88;55.20;;;9.70;99.90;;;;;;5058683;28;20177;-85
2022/09/21 04:51:06;;;;;;;84.30;51.07;;;9.70;99.90;;;;;;5115707;22;20559;-87
2022/09/21 04:53:36;;;;;;;84.47;47.45;;;9.70;99.90;;;;;;5080024;28;20160;-85
2022/09/21 04:56:03;;;;;;;86.38;51.63;;;9.70;99.90;;;;;;5086520;28;20168;-85
2022/09/21 04:58:29;;;;;;;86.28;48.65;;;9.70;99.90;;;;;;5068195;28;20548;-85
2022/09/21 05:00:55;;;;;;;87.70;44.57;;;9.70;99.90;;;;;;5060760;28;20163;-85
2022/09/21 05:03:22;;;;;;;81.17;43.60;;;9.70;99.90;;;;;;5061701;28;20453;-85
2022/09/21 05:05:50;;;;;;;85.03;48.88;;;9.70;99.90;;;;;;5061312;28;20165;-85
2022/09/21 05:08:16;;;;;;;84.35;49.88;;;9.70;99.90;;;;;;5061841;28;20537;-85
2022/09/21 05:10:42;;;;;;;86.55;53.13;;;9.60;99.90;;;;;;5044611;28;20168;-85
2022/09/21 05:13:08;;;;;;;86.05;53.25;;;9.60;99.90;;;;;;5043082;28;20168;-85
2022/09/21 05:15:37;;;;;;;86.30;51.87;;;9.60;99.90;;;;;;5061039;28;20621;-85
2022/09/21 05:18:03;;;;;;;93.47;61.58;;;9.60;99.90;;;;;;5069363;28;20428;-85
2022/09/21 05:20:29;;;;;;;87.97;56.60;;;9.60;99.90;;;;;;5069443;28;20178;-85
2022/09/21 05:22:54;;;;;;;82.97;49.50;;;9.60;99.90;;;;;;5064866;28;20395;-85
2022/09/21 05:25:20;;;;;;;86.47;54.33;;;9.60;99.90;;;;;;5065325;28;20168;-85
2022/09/21 05:27:46;;;;;;;88.83;51.53;;;9.60;99.90;;;;;;5047533;28;20214;-85
2022/09/21 05:30:12;;;;;;;83.37;44.60;;;9.60;99.90;;;;;;5066825;28;20656;-85
2022/09/21 05:32:47;;;;;;;81.45;47.15;;;9.60;99.90;;;;;;5048307;28;20426;-85
2022/09/21 05:35:51;;;;;;;80.53;35.03;;;9.70;99.90;;;;;;5048429;28;20193;-85
2022/09/21 05:38:18;;;;;;;91.32;26.65;;;9.60;99.90;;;;;;5065867;28;20683;-84
2022/09/21 05:40:46;;;;;;;74.75;20.90;;;9.50;99.90;;;;;;5064196;28;20169;-85
2022/09/21 05:43:13;;;;;;;91.15;23.55;;;9.50;99.90;;;;;;5063820;28;20141;-85
2022/09/21 05:46:04;;;;;;;75.90;19.00;;;9.30;99.90;;;;;;5064413;28;20161;-85
2022/09/21 05:48:39;;;;;;;80.13;18.15;;;9.20;99.90;;;;;;5042474;28;20337;-85
2022/09/21 05:51:15;;;;;;;78.55;15.93;;;9.20;99.90;;;;;;5062265;28;20184;-85
2022/09/21 05:54:01;;;;;;;73.97;15.63;;;9.30;99.90;;;;;;5063471;28;20158;-85
2022/09/21 05:56:52;;;;;;;75.82;20.30;;;9.40;99.90;;;;;;5046969;28;20153;-85
2022/09/21 05:59:23;;;;;;;76.60;20.63;;;9.50;99.90;;;;;;5061601;28;20172;-85
2022/09/21 06:02:09;;;;;;;81.72;19.20;;;9.60;99.90;;;;;;5058561;28;20196;-86
2022/09/21 06:04:35;;;;;;;78.32;17.15;;;9.70;99.90;;;;;;5048943;28;20272;-85
2022/09/21 06:07:01;;;;;;;78.57;18.38;;;9.60;99.90;;;;;;5064277;28;20667;-84
2022/09/21 06:13:17;;;;;;;74.25;17.38;;;9.50;99.90;;;;;;5060598;28;20179;-85
2022/09/21 06:16:01;;;;;;;76.82;18.95;;;9.60;99.90;;;;;;5059138;28;20205;-85
2022/09/21 06:18:32;;;;;;;74.22;16.30;;;9.70;99.90;;;;;;5041494;28;20656;-85
2022/09/21 06:21:10;;;;;;;74.53;18.80;;;9.70;99.90;;;;;;5056731;28;20172;-85
2022/09/21 06:23:36;;;;;;;73.85;17.52;;;9.70;99.90;;;;;;5059359;28;20196;-85
2022/09/21 06:26:17;;;;;;;81.05;19.50;;;9.70;99.90;;;;;;5040944;28;20168;-85
2022/09/21 06:28:52;;;;;;;75.60;17.33;;;9.60;99.90;;;;;;5056060;28;20203;-85
2022/09/21 06:31:35;;;;;;;75.03;22.17;;;9.60;99.90;;;;;;5060578;28;20179;-85
2022/09/21 06:34:07;;;;;;;76.13;20.15;;;9.70;99.90;;;;;;5062646;28;20172;-85
2022/09/21 06:36:33;;;;;;;77.60;18.05;;;9.70;99.90;;;;;;5063827;28;20167;-85
2022/09/21 06:39:55;;;;;;;80.23;18.20;;;9.60;99.90;;;;;;5045481;28;20176;-85
2022/09/21 06:42:24;;;;;;;79.43;21.10;;;9.50;99.90;;;;;;5063543;28;20486;-85
2022/09/21 06:44:50;;;;;;;82.82;28.60;;;9.50;99.90;;;;;;5063351;28;20202;-85
2022/09/21 06:47:25;;;;;;;84.13;26.77;;;9.40;99.90;;;;;;5064306;28;20191;-85
2022/09/21 06:49:53;;;;;;;83.32;27.15;;;9.40;99.90;;;;;;5064846;28;20152;-85
2022/09/21 06:52:21;;;;;;;83.18;25.30;;;9.40;99.90;;;;;;5062451;28;20199;-85
2022/09/21 06:54:47;;;;;;;83.93;25.40;;;9.40;99.90;;;;;;5066319;28;20185;-85
2022/09/21 06:57:24;;;;;;;80.47;24.63;;;9.50;99.90;;;;;;5066928;28;20234;-85
2022/09/21 06:59:54;;;;;;;79.82;23.50;;;9.60;99.90;;;;;;5066269;28;20184;-85
2022/09/21 07:02:20;;;;;;;79.15;20.80;;;9.60;99.90;;;;;;5067765;28;20166;-85
2022/09/21 07:04:46;;;;;;;77.07;20.60;;;9.70;99.90;;;;;;5068709;28;20169;-85
2022/09/21 07:07:37;;;;;;;78.30;19.10;;;9.60;99.90;;;;;;5066056;28;20434;-85
2022/09/21 07:10:03;;;;;;;72.35;19.05;;;9.70;99.90;;;;;;5064737;28;20149;-84
2022/09/21 07:12:34;;;;;;;72.43;17.50;;;9.60;99.90;;;;;;5064433;28;20229;-85
2022/09/21 07:15:24;;;;;;;;;;;;;;;;;;;;;
2022/09/21 07:17:56;;;;;;;76.80;18.08;;;9.90;99.90;;;;;;5063728;28;20328;-85
2022/09/21 07:20:33;;;;;;;78.63;21.48;;;10.00;99.90;;;;;;5062425;28;20161;-85
2022/09/21 07:23:01;;;;;;;79.25;17.80;;;9.90;99.90;;;;;;5061867;28;20164;-85
2022/09/21 07:25:30;;;;;;;80.35;17.73;;;9.90;99.90;;;;;;5061761;28;20224;-85
2022/09/21 07:28:01;;;;;;;88.53;22.13;;;10.00;99.90;;;;;;5060262;28;20205;-85
2022/09/21 07:30:30;;;;;;;91.25;22.75;;;10.10;99.90;;;;;;5058663;28;20174;-85
2022/09/21 07:32:59;;;;;;;93.93;26.88;;;10.20;99.90;;;;;;5058012;28;20180;-85
2022/09/21 07:35:27;;;;;;;87.85;22.48;;;10.20;99.90;;;;;;5060193;28;20295;-85
2022/09/21 07:37:55;;;;;;;97.18;23.67;;;10.20;99.90;;;;;;5060931;28;20189;-84
2022/09/21 07:40:24;;;;;;;104.45;26.65;;;10.10;99.90;;;;;;5058953;28;20243;-85
2022/09/21 07:42:50;;;;;;;101.15;26.77;;;10.30;99.90;;;;;;5059164;28;20156;-85
2022/09/21 07:45:22;;;;;;;114.97;26.30;;;10.40;99.90;;;;;;5059707;28;20654;-85
2022/09/21 07:47:53;;;;;;;113.07;30.08;;;10.50;99.90;;;;;;5060081;28;20419;-85
2022/09/21 07:50:37;;;;;;;109.82;28.23;;;10.50;99.90;;;;;;5056269;28;20206;-85
2022/09/21 07:53:03;;;;;;;93.57;23.48;;;10.50;99.90;;;;;;5060389;28;20166;-85
2022/09/21 07:55:31;;;;;;;108.70;28.57;;;10.60;99.90;;;;;;5061761;28;20185;-85
2022/09/21 08:01:29;;;;;;;114.70;30.63;;;10.80;99.90;;;;;;5060319;28;20183;-85
2022/09/21 08:04:12;;;;;;;113.60;31.52;;;10.90;99.90;;;;;;5011229;28;20176;-85
2022/09/21 08:06:41;;;;;;;105.70;33.35;;;10.80;99.90;;;;;;5040212;28;20184;-85
2022/09/21 08:09:18;;;;;;;111.75;34.47;;;10.70;99.90;;;;;;5057766;28;20726;-85
2022/09/21 08:12:01;;;;;;;108.70;33.63;;;10.70;99.90;;;;;;5056661;28;20168;-85
2022/09/21 08:17:41;;;;;;;113.82;30.25;;;10.80;99.90;;;;;;5056562;28;20192;-85
2022/09/21 08:24:06;;;;;;;110.88;31.90;;;10.80;99.90;;;;;;5014917;28;20212;-85
2022/09/21 08:27:08;;;;;;;110.40;30.15;;;10.90;99.90;;;;;;5007557;28;20172;-86
2022/09/21 08:29:45;;;;;;;111.32;33.97;;;10.90;99.90;;;;;;5039116;28;20237;-85
2022/09/21 08:36:02;;;;;;;117.72;35.72;;;10.80;99.90;;;;;;5056580;28;20187;-85
2022/09/21 08:38:59;;;;;;;114.10;34.47;;;10.70;99.90;;;;;;5039509;28;20192;-84
2022/09/21 08:42:21;;;;;;;109.18;32.35;;;10.60;99.90;;;;;;5058431;28;20141;-84
2022/09/21 09:20:36;;;;;;;103.50;35.65;;;11.50;99.90;;;;;;4897513;22;20633;-85
2022/09/21 09:46:22;;;;;;;97.97;25.30;;;12.60;99.90;;;;;;4956500;28;20172;-86
2022/09/21 09:49:36;;;;;;;89.30;25.20;;;12.80;99.90;;;;;;5172903;22;20479;-87
2022/09/21 09:52:47;;;;;;;95.53;38.37;;;13.20;99.90;;;;;;5009728;28;20459;-87
2022/09/21 09:55:29;;;;;;;103.03;49.97;;;13.50;99.90;;;;;;5035654;28;20513;-86
2022/09/21 09:58:14;;;;;;;96.10;49.03;;;13.50;99.90;;;;;;5032441;28;20506;-85
2022/09/21 10:00:49;;;;;;;98.10;48.77;;;13.50;99.90;;;;;;5017884;28;20389;-85
2022/09/21 10:04:12;;;;;;;90.30;39.77;;;13.70;99.90;;;;;;5019317;28;20865;-84
2022/09/21 10:06:44;;;;;;;85.80;29.63;;;14.00;99.90;;;;;;5016447;28;20420;-85
2022/09/21 10:09:23;;;;;;;80.17;21.77;;;14.10;99.90;;;;;;5018929;28;20424;-85
2022/09/21 10:11:54;;;;;;;78.67;16.03;;;14.40;99.90;;;;;;5027901;28;20834;-85
2022/09/21 10:14:50;;;;;;;78.20;14.97;;;14.60;99.90;;;;;;5043487;28;20456;-85
2022/09/21 10:17:52;;;;;;;77.87;11.67;;;15.00;99.90;;;;;;5023925;28;20429;-84
2022/09/21 10:20:20;;;;;;;79.57;11.10;;;15.20;99.90;;;;;;5023028;28;20408;-84
2022/09/21 10:22:55;;;;;;;76.57;11.30;;;15.30;99.90;;;;;;5025395;28;20467;-84
2022/09/21 10:25:38;;;;;;;75.27;9.50;;;15.50;99.90;;;;;;5024192;28;20442;-84
2022/09/21 10:28:21;;;;;;;71.20;7.10;;;15.90;99.90;;;;;;5025382;28;20480;-84
2022/09/21 10:31:21;;;;;;;74.10;8.63;;;15.90;78.30;;;;;;5025336;28;20386;-84
2022/09/21 10:37:32;;;;;;;72.70;7.63;;;16.10;91.40;;;;;;5023688;28;20946;-84
2022/09/21 10:40:03;;;;;;;70.07;6.33;;;15.80;63.30;;;;;;5024004;28;20411;-84
2022/09/21 10:42:43;;;;;;;70.67;5.67;;;16.10;56.30;;;;;;5025786;28;20384;-83
2022/09/21 10:45:23;;;;;;;71.27;7.70;;;16.10;55.70;;;;;;5025363;28;20936;-83
2022/09/21 10:48:15;;;;;;;70.97;6.33;;;16.10;64.30;;;;;;5024947;28;20521;-83
2022/09/21 10:50:48;;;;;;;72.10;5.37;;;16.30;69.00;;;;;;5097787;22;20445;-82
2022/09/21 10:53:22;;;;;;;69.87;5.83;;;16.40;40.90;;;;;;5034753;28;20399;-83
2022/09/21 10:56:17;;;;;;;70.93;5.10;;;16.20;50.60;;;;;;5034787;28;20451;-82
2022/09/21 10:59:22;;;;;;;69.30;4.70;;;16.50;54.40;;;;;;5026197;28;20440;-82
2022/09/21 11:01:51;;;;;;;69.73;4.70;;;16.70;54.40;;;;;;5035468;28;20404;-83
2022/09/21 11:04:17;;;;;;;69.40;4.90;;;17.20;50.70;;;;;;5035188;28;20456;-83
2022/09/21 11:06:57;;;;;;;69.83;4.93;;;17.50;44.40;;;;;;5034728;28;20399;-82
2022/09/21 11:09:59;;;;;;;67.17;5.50;;;17.90;37.10;;;;;;5035066;28;20153;-82
2022/09/21 11:12:31;;;;;;;70.83;6.43;;;17.80;3.70;;;;;;5019277;28;20403;-83
2022/09/21 11:15:40;;;;;;;67.83;5.80;;;17.50;14.70;;;;;;5018016;28;20447;-83
2022/09/21 11:18:19;;;;;;;70.10;5.13;;;17.40;6.30;;;;;;5024552;28;20842;-82
2022/09/21 11:21:19;;;;;;;75.23;5.80;;;17.30;5.90;;;;;;5038818;28;20381;-82
2022/09/21 11:24:02;;;;;;;71.33;4.20;;;17.50;1.00;;;;;;5038526;28;20416;-83
2022/09/21 11:26:51;;;;;;;65.90;3.57;;;17.30;1.00;;;;;;5038763;28;20441;-83
2022/09/21 11:29:35;;;;;;;66.73;4.07;;;17.40;1.00;;;;;;5038777;28;20380;-82
2022/09/21 11:32:13;;;;;;;70.20;3.77;;;17.80;1.00;;;;;;5038493;28;20775;-83
2022/09/21 11:34:53;;;;;;;66.93;3.43;;;17.80;1.00;;;;;;5021392;28;20443;-83
2022/09/21 11:37:43;;;;;;;68.30;3.90;;;18.00;1.00;;;;;;5038471;28;20416;-82
2022/09/21 11:40:32;;;;;;;68.90;3.40;;;18.40;1.00;;;;;;5020482;28;20400;-83
2022/09/21 11:43:16;;;;;;;66.20;3.10;;;18.80;1.00;;;;;;5020356;28;20768;-83
2022/09/21 11:45:57;;;;;;;67.17;3.27;;;18.90;1.00;;;;;;5038043;28;20396;-82
2022/09/21 11:49:08;;;;;;;67.37;3.20;;;18.50;1.00;;;;;;5021323;28;20996;-82
2022/09/21 11:52:20;;;;;;;65.47;3.10;;;18.80;1.00;;;;;;5037859;28;20422;-82
2022/09/21 11:54:52;;;;;;;69.47;3.17;;;19.10;1.00;;;;;;5032344;28;20547;-83
2022/09/21 11:57:40;;;;;;;66.57;3.20;;;18.80;1.00;;;;;;5037848;28;20423;-83
2022/09/21 12:00:19;;;;;;;68.17;3.23;;;18.90;1.00;;;;;;5020083;28;20470;-83
2022/09/21 12:03:09;;;;;;;66.20;2.83;;;18.60;1.00;;;;;;5037804;28;20384;-83
2022/09/21 12:05:57;;;;;;;66.50;3.00;;;18.30;1.00;;;;;;5019590;28;20826;-82
2022/09/21 12:08:57;;;;;;;65.50;2.73;;;18.80;1.00;;;;;;5036968;28;20436;-83
2022/09/21 12:11:42;;;;;;;66.17;3.30;;;19.00;1.00;;;;;;5019810;28;20415;-83
2022/09/21 12:14:28;;;;;;;67.60;2.73;;;19.10;1.00;;;;;;5037839;28;20486;-83
2022/09/21 12:17:09;;;;;;;68.30;3.10;;;19.30;1.00;;;;;;5036938;28;20386;-83
2022/09/21 12:19:40;;;;;;;67.97;3.50;;;19.30;1.00;;;;;;5036618;28;20495;-83
2022/09/21 12:22:22;;;;;;;66.60;3.00;;;18.90;1.00;;;;;;5019064;28;20408;-82
2022/09/21 12:24:58;;;;;;;67.37;3.20;;;18.80;1.00;;;;;;5018852;28;20408;-82
2022/09/21 12:27:38;;;;;;;66.20;2.50;;;18.80;1.00;;;;;;5017762;28;20429;-82
2022/09/21 12:30:10;;;;;;;69.47;2.50;;;19.10;1.00;;;;;;5018743;28;20411;-82
2022/09/21 12:32:48;;;;;;;67.63;3.13;;;19.50;1.00;;;;;;5019029;28;20451;-82
2022/09/21 12:35:20;;;;;;;66.00;2.47;;;19.80;1.00;;;;;;5036961;28;21007;-83
2022/09/21 12:38:17;;;;;;;66.80;2.77;;;19.90;1.00;;;;;;5018794;28;20449;-83
2022/09/21 12:40:58;;;;;;;71.63;3.13;;;20.10;1.00;;;;;;5035623;28;21020;-83
2022/09/21 12:43:42;;;;;;;67.33;2.60;;;20.10;1.00;;;;;;5037288;28;20383;-82
2022/09/21 12:46:14;;;;;;;69.87;3.13;;;20.00;1.00;;;;;;5036854;28;20387;-83
2022/09/21 12:48:41;;;;;;;65.97;2.70;;;20.00;1.00;;;;;;5036413;28;20421;-82
2022/09/21 12:51:21;;;;;;;66.50;2.90;;;19.50;1.00;;;;;;5018708;28;20962;-82
2022/09/21 12:53:50;;;;;;;69.57;2.90;;;19.10;1.00;;;;;;5036392;28;20404;-83
2022/09/21 12:56:48;;;;;;;67.87;2.87;;;19.30;1.00;;;;;;5037059;28;20462;-82
2022/09/21 12:59:35;;;;;;;68.23;2.87;;;19.30;1.00;;;;;;5035898;28;20412;-82
2022/09/21 13:02:23;;;;;;;65.93;2.50;;;19.60;1.00;;;;;;5018597;28;20406;-83
2022/09/21 13:05:20;;;;;;;68.13;2.80;;;19.30;1.00;;;;;;5036273;28;20419;-83
2022/09/21 13:08:08;;;;;;;68.23;2.70;;;19.20;1.00;;;;;;5032777;28;20500;-83
2022/09/21 13:10:42;;;;;;;69.37;2.37;;;19.50;1.00;;;;;;5036254;28;20390;-82
2022/09/21 13:13:52;;;;;;;65.40;2.57;;;19.10;1.00;;;;;;5019279;28;20415;-82
2022/09/21 13:16:28;;;;;;;67.47;2.77;;;18.90;1.00;;;;;;4997271;28;20427;-83
2022/09/21 13:18:57;;;;;;;66.70;2.40;;;19.30;1.00;;;;;;5018163;28;20974;-83
2022/09/21 13:21:29;;;;;;;66.20;2.43;;;19.20;1.00;;;;;;5036045;28;20407;-83
2022/09/21 13:24:00;;;;;;;67.10;2.47;;;19.50;1.00;;;;;;5036190;28;20388;-83
2022/09/21 13:26:37;;;;;;;68.93;3.50;;;19.40;1.00;;;;;;5036171;28;20479;-83
2022/09/21 13:29:25;;;;;;;65.87;2.50;;;19.30;1.00;;;;;;5035719;28;20443;-83
2022/09/21 13:32:00;;;;;;;71.37;2.70;;;19.30;1.00;;;;;;5018438;28;20403;-83
2022/09/21 13:34:37;;;;;;;68.27;2.90;;;19.50;1.00;;;;;;5018997;28;20459;-83
2022/09/21 13:37:12;;;;;;;66.37;2.00;;;19.50;1.00;;;;;;5017717;28;20418;-83
2022/09/21 13:40:02;;;;;;;65.50;2.10;;;19.40;1.00;;;;;;5035852;28;20427;-82
2022/09/21 13:42:34;;;;;;;66.47;2.70;;;19.30;1.00;;;;;;5035691;28;20409;-83
2022/09/21 13:44:59;;;;;;;68.13;2.70;;;19.20;1.00;;;;;;5035342;28;20407;-83
2022/09/21 13:47:38;;;;;;;71.60;2.70;;;18.80;1.00;;;;;;5017575;28;20498;-83
2022/09/21 13:50:17;;;;;;;68.97;2.50;;;19.00;1.00;;;;;;5035434;28;20196;-83
2022/09/21 13:52:46;;;;;;;65.53;2.27;;;19.20;1.00;;;;;;5017597;28;20772;-83
2022/09/21 13:55:31;;;;;;;69.00;2.10;;;19.30;1.00;;;;;;5017525;28;20455;-82
2022/09/21 13:58:03;;;;;;;67.60;2.13;;;19.10;1.00;;;;;;5034899;28;20425;-82
2022/09/21 14:00:55;;;;;;;69.30;2.40;;;19.00;1.00;;;;;;5035814;28;20384;-83
2022/09/21 14:03:24;;;;;;;71.30;2.40;;;18.60;1.00;;;;;;5017491;28;20930;-82
2022/09/21 14:06:00;;;;;;;66.37;2.33;;;18.80;1.00;;;;;;5035167;28;20438;-83
2022/09/21 14:08:46;;;;;;;65.47;2.50;;;18.80;1.00;;;;;;5017535;28;20432;-82
2022/09/21 14:11:28;;;;;;;70.53;2.83;;;18.60;1.00;;;;;;5017118;28;20424;-82
2022/09/21 14:14:17;;;;;;;66.13;2.30;;;18.80;1.00;;;;;;5034704;28;20380;-83
2022/09/21 14:16:46;;;;;;;66.07;2.00;;;19.00;1.00;;;;;;5034901;28;20392;-82
2022/09/21 14:19:18;;;;;;;66.50;2.53;;;19.00;1.00;;;;;;5017599;28;20452;-82
2022/09/21 14:22:03;;;;;;;65.47;2.80;;;19.20;1.00;;;;;;5034508;28;20412;-82
2022/09/21 14:24:43;;;;;;;65.87;2.47;;;19.20;1.00;;;;;;5016683;28;20416;-82
2022/09/21 14:27:40;;;;;;;65.33;2.20;;;19.10;1.00;;;;;;5034565;28;20387;-82
2022/09/21 14:30:19;;;;;;;66.13;2.40;;;19.10;1.00;;;;;;5016644;28;20405;-83
2022/09/21 14:33:01;;;;;;;66.20;2.37;;;19.10;1.00;;;;;;5034851;28;20390;-82
2022/09/21 14:35:32;;;;;;;65.97;2.67;;;19.50;1.00;;;;;;5016650;28;20474;-81
2022/09/21 14:38:01;;;;;;;66.03;3.00;;;19.40;1.00;;;;;;5034223;28;20462;-81
2022/09/21 14:40:37;;;;;;;66.13;2.70;;;19.40;1.00;;;;;;5034340;28;20405;-83